Flight Track Log - Related Links

Times and Time Zones

All times are in EDT time to prevent confusion due to time zone crossing. See the UAL118 flight status page for this flight to view local times or setup timezone preferences in your user account.

Time Position Orientation Groundspeed Altitude Reporting Facility
EDT Latitude Longitude Course Direction KTS MPH feet Rate Location/Type
Thu 03:13:00 AM 50.1792 8.1127 298° West  Level FlightAware Approximate
Thu 03:13:48 AM 50.0070 8.2690 299° West 251 289 6,400  Level FlightAware ADS-B
Thu 03:14:00 AM 50.2263 7.9564 299° West  Level FlightAware Approximate
Thu 03:14:03 AM 50.0130 8.2480 294° West 256 295 6,800  Level FlightAware ADS-B
Thu 03:14:33 AM 50.0280 8.1980 295° West 254 292 7,000 218 Climbing FlightAware ADS-B
Thu 03:14:58 AM 50.0410 8.1530 294° West 247 284 7,000  Level FlightAware ADS-B
Thu 03:15:13 AM 50.0480 8.1300 295° West 248 285 7,000  Level FlightAware ADS-B
Thu 03:15:43 AM 50.0680 8.0830 304° West 257 296 7,000  Level FlightAware ADS-B
Thu 03:15:58 AM 50.0760 8.0650 305° West 256 295 7,000 900 Level FlightAware ADS-B
Thu 03:16:23 AM 50.0970 8.0250 309° West 260 299 7,600 2,100 Climbing FlightAware ADS-B
Thu 03:16:38 AM 50.1090 8.0030 310° West 258 297 8,400 2,667 Climbing FlightAware ADS-B
Thu 03:17:08 AM 50.1310 7.9600 309° West 264 304 9,600 1,971 Climbing FlightAware ADS-B
Thu 03:17:48 AM 50.1620 7.8980 308° West 290 334 10,700 1,553 Climbing FlightAware ADS-B
Thu 03:18:33 AM 50.2030 7.8160 308° West 334 384 11,800 1,976 Climbing FlightAware ADS-B
Thu 03:19:13 AM 50.2450 7.7400 311° West 348 400 13,500 2,325 Climbing FlightAware ADS-B
Thu 03:19:53 AM 50.3030 7.6890 331° Northwest 371 427 14,900 2,188 Climbing FlightAware ADS-B
Thu 03:20:38 AM 50.3750 7.6390 336° Northwest 371 427 16,600 2,188 Climbing FlightAware ADS-B
Thu 03:21:18 AM 50.4370 7.5960 336° Northwest 385 443 18,000 2,025 Climbing FlightAware ADS-B
Thu 03:21:58 AM 50.5040 7.5490 336° Northwest 392 451 19,300 1,906 Climbing FlightAware ADS-B
Thu 03:22:43 AM 50.5770 7.4900 333° Northwest 394 453 20,700 1,800 Climbing FlightAware ADS-B
Thu 03:23:28 AM 50.6460 7.4190 327° Northwest 401 461 22,000 1,835 Climbing FlightAware ADS-B
Thu 03:24:08 AM 50.7090 7.3530 326° Northwest 404 465 23,300 1,725 Climbing FlightAware ADS-B
Thu 03:24:48 AM 50.7720 7.2890 327° Northwest 404 465 24,300 1,482 Climbing FlightAware ADS-B
Thu 03:25:33 AM 50.8420 7.2150 326° Northwest 411 473 25,400 1,412 Climbing FlightAware ADS-B
Thu 03:26:13 AM 50.9090 7.1460 327° Northwest 416 479 26,300 1,350 Climbing FlightAware ADS-B
Thu 03:26:53 AM 50.9660 7.0620 317° Northwest 404 465 27,200 1,271 Climbing FlightAware ADS-B
Thu 03:27:38 AM 51.0070 6.9490 300° West 402 463 28,100 1,129 Climbing FlightAware ADS-B
Thu 03:28:18 AM 51.0410 6.8430 297° West 408 470 28,800 1,059 Climbing FlightAware ADS-B
Thu 03:29:03 AM 51.0800 6.7190 297° West 416 479 29,600 1,200 Climbing FlightAware ADS-B
Thu 03:29:43 AM 51.1140 6.6120 297° West 416 479 30,500 1,125 Climbing FlightAware ADS-B
Thu 03:30:23 AM 51.1480 6.5040 297° West 422 486 31,100 1,125 Climbing FlightAware ADS-B
Thu 03:31:03 AM 51.1850 6.3870 297° West 420 483 32,000 1,341 Climbing FlightAware ADS-B
Thu 03:31:48 AM 51.2250 6.2590 297° West 423 487 33,000 1,200 Climbing FlightAware ADS-B
Thu 03:32:33 AM 51.2630 6.1360 296° West 422 486 33,800 706 Climbing FlightAware ADS-B
Thu 03:33:13 AM 51.3000 6.0350 300° West 428 493 34,000 150 Climbing FlightAware ADS-B
Thu 03:33:53 AM 51.3460 5.9210 303° West 428 493 34,000  Level FlightAware ADS-B
Thu 03:34:38 AM 51.3920 5.8050 302° West 426 490 34,000  Level FlightAware ADS-B
Thu 03:35:18 AM 51.4370 5.6930 303° West 425 489 34,000  Level FlightAware ADS-B
Thu 03:35:58 AM 51.4770 5.5910 302° West 424 488 34,000  Level FlightAware ADS-B
Thu 03:36:43 AM 51.5250 5.4690 302° West 423 487 34,000 -1,475 Level FlightAware ADS-B
Thu 03:36:59 AM 51.5452 5.4440 302° West 456 525 32,500  Descending FlightAware UK
Thu 03:37:23 AM 51.5660 5.3640 302° West 423 487 34,000  Climbing FlightAware ADS-B
Thu 03:37:53 AM 51.6006 5.3013 302° West 460 529 32,500  Descending FlightAware UK
Thu 03:38:08 AM 51.6100 5.2490 302° West 422 486 34,000  Climbing FlightAware ADS-B
Thu 03:38:29 AM 51.6376 5.2060 302° West 460 529 32,500  Descending FlightAware UK
Thu 03:38:48 AM 51.6540 5.1370 302° West 421 484 34,000  Climbing FlightAware ADS-B
Thu 03:39:11 AM 51.6813 5.0955 302° West 462 532 32,500  Descending FlightAware UK
Thu 03:39:28 AM 51.6960 5.0270 302° West 419 482 34,000 1,452 Climbing FlightAware ADS-B
Thu 03:40:13 AM 51.7430 4.9050 302° West 418 481 34,000 -1,475 Level FlightAware ADS-B
Thu 03:40:29 AM 51.7611 4.8899 302° West 458 527 32,500  Descending FlightAware UK
Thu 03:40:53 AM 51.7800 4.8070 302° West 417 480 34,000  Climbing FlightAware ADS-B
Thu 03:41:29 AM 51.8200 4.7300 302° West 458 527 32,500  Descending FlightAware UK
Thu 03:41:38 AM 51.8300 4.6870 302° West 433 498 34,000 1,837 Climbing FlightAware ADS-B
Thu 03:42:18 AM 51.8970 4.6060 323° Northwest 466 536 34,000 -1,579 Level FlightAware ADS-B
Thu 03:42:35 AM 51.9308 4.6002 323° Northwest 458 527 32,500 -2,571 Descending FlightAware UK
Thu 03:42:53 AM 51.9662 4.5705 333° Northwest 462 532 32,500 3,214 Level FlightAware UK
Thu 03:43:03 AM 51.9790 4.5290 333° Northwest 467 537 34,000  Climbing FlightAware ADS-B
Thu 03:43:23 AM 52.0241 4.5197 333° Northwest 462 532 32,500  Descending FlightAware UK
Thu 03:43:43 AM 52.0510 4.4630 333° Northwest 466 536 34,000  Climbing FlightAware ADS-B
Thu 03:43:59 AM 52.0918 4.4577 333° Northwest 460 529 32,500  Descending FlightAware UK
Thu 03:44:23 AM 52.1330 4.3860 333° Northwest 466 536 34,000  Climbing FlightAware ADS-B
Thu 03:44:41 AM 52.1691 4.3841 333° Northwest 458 527 32,500  Descending FlightAware UK
Thu 03:45:08 AM 52.2140 4.3080 333° Northwest 465 535 34,000  Climbing FlightAware ADS-B
Thu 03:45:29 AM 52.2574 4.2994 333° Northwest 458 527 32,500  Descending FlightAware UK
Thu 03:45:43 AM 52.2720 4.2530 333° Northwest 465 535 34,000  Climbing FlightAware ADS-B
Thu 03:46:23 AM 52.3570 4.2038 333° Northwest 458 527 32,500  Descending FlightAware UK
Thu 03:46:28 AM 52.3630 4.1670 333° Northwest 464 534 34,000 1,800 Climbing FlightAware ADS-B
Thu 03:47:13 AM 52.4460 4.0870 330° Northwest 465 535 34,000  Level FlightAware ADS-B
Thu 03:47:53 AM 52.5220 4.0140 330° Northwest 465 535 34,000 -1,406 Level FlightAware ADS-B
Thu 03:48:17 AM 52.5684 4.0012 330° Northwest 460 529 32,500  Descending FlightAware UK
Thu 03:48:38 AM 52.6030 3.9360 330° Northwest 464 534 34,000  Climbing FlightAware ADS-B
Thu 03:48:53 AM 52.6348 3.9367 330° Northwest 458 527 32,500 -2,308 Descending FlightAware UK
Thu 03:49:17 AM 52.6785 3.8927 329° Northwest 456 525 32,500 3,600 Level FlightAware UK
Thu 03:49:18 AM 52.6750 3.8620 329° Northwest 454 522 34,000  Climbing FlightAware ADS-B
Thu 03:49:35 AM 52.7061 3.8519 329° Northwest 458 527 32,500 -2,571 Descending FlightAware UK
Thu 03:49:53 AM 52.7312 3.8101 315° West 462 532 32,500 3,913 Level FlightAware UK
Thu 03:49:58 AM 52.7350 3.7720 315° West 429 494 34,000  Climbing FlightAware ADS-B
Thu 03:50:17 AM 52.7605 3.7489 315° West 464 534 32,500 -2,432 Descending FlightAware UK
Thu 03:50:35 AM 52.7775 3.7011 300° West 460 529 32,500 3,462 Level FlightAware UK
Thu 03:50:43 AM 52.7850 3.6510 300° West 411 473 34,000  Climbing FlightAware ADS-B
Thu 03:50:59 AM 52.8012 3.6370 300° West 468 539 32,500  Descending FlightAware UK
Thu 03:51:23 AM 52.8240 3.5470 300° West 408 470 34,000  Climbing FlightAware ADS-B
Thu 03:51:41 AM 52.8422 3.5247 300° West 466 536 32,500 -2,500 Descending FlightAware UK
Thu 03:51:59 AM 52.8594 3.4766 301° West 466 536 32,500 3,333 Level FlightAware UK
Thu 03:52:08 AM 52.8650 3.4330 301° West 407 468 34,000  Climbing FlightAware ADS-B
Thu 03:52:23 AM 52.8825 3.4126 301° West 466 536 32,500 -2,308 Descending FlightAware UK
Thu 03:52:47 AM 52.9057 3.3485 301° West 466 536 32,500  Level FlightAware UK
Thu 03:53:11 AM 52.9289 3.2846 301° West 464 534 32,500  Level FlightAware UK
Thu 03:53:13 AM 52.9270 3.2620 301° West 34,000  Climbing FlightAware ADS-B
Thu 03:53:29 AM 52.9470 3.2373 301° West 462 532 32,500 -2,250 Descending FlightAware UK
Thu 03:53:53 AM 52.9721 3.1749 304° West 462 532 32,500 3,103 Level FlightAware UK
Thu 03:53:58 AM 52.9770 3.1370 304° West 407 468 34,000  Climbing FlightAware ADS-B
Thu 03:54:23 AM 53.0037 3.0969 304° West 464 534 32,500  Descending FlightAware UK
Thu 03:54:38 AM 53.0170 3.0340 304° West 400 460 34,000  Climbing FlightAware ADS-B
Thu 03:54:58 AM 53.0403 3.0037 304° West 458 527 32,500 -2,368 Descending FlightAware UK
Thu 03:55:16 AM 53.0587 2.9569 303° West 460 529 32,500 3,600 Level FlightAware UK
Thu 03:55:23 AM 53.0630 2.9170 303° West 400 460 34,000  Climbing FlightAware ADS-B
Thu 03:55:40 AM 53.0834 2.8944 303° West 466 536 32,500 -2,500 Descending FlightAware UK
Thu 03:55:59 AM 53.1020 2.8470 303° West 464 534 32,500  Level FlightAware UK
Thu 03:56:17 AM 53.1204 2.8000 303° West 466 536 32,500  Level FlightAware UK
Thu 03:56:35 AM 53.1388 2.7531 303° West 466 536 32,500  Level FlightAware UK
Thu 03:56:52 AM 53.1562 2.7061 302° West 464 534 32,500  Level FlightAware UK
Thu 03:57:11 AM 53.1733 2.6577 301° West 462 532 32,500 1,765 Level FlightAware UK
Thu 03:57:43 AM 53.2010 2.5530 301° West 399 459 34,000 1,250 Climbing FlightAware ADS-B
Thu 03:58:23 AM 53.2400 2.4500 302° West 401 461 34,000 -1,429 Level FlightAware ADS-B
Thu 03:58:46 AM 53.2660 2.4067 302° West 458 527 32,500  Descending FlightAware UK
Thu 03:59:08 AM 53.2850 2.3280 302° West 398 458 34,000  Climbing FlightAware ADS-B
Thu 03:59:28 AM 53.3070 2.2961 302° West 462 532 32,500  Descending FlightAware UK
Thu 03:59:48 AM 53.3230 2.2250 302° West 395 455 34,000  Climbing FlightAware ADS-B
Thu 04:00:10 AM 53.3475 2.1861 302° West 460 529 32,500  Descending FlightAware UK
Thu 04:00:33 AM 53.3650 2.1120 302° West 389 448 34,000 1,429 Climbing FlightAware ADS-B
Thu 04:01:13 AM 53.4020 2.0100 301° West 388 447 34,000 -1,475 Level FlightAware ADS-B
Thu 04:01:34 AM 53.4260 1.9694 301° West 456 525 32,500  Descending FlightAware UK
Thu 04:01:53 AM 53.4410 1.9010 301° West 385 443 34,000 1,406 Climbing FlightAware ADS-B
Thu 04:02:38 AM 53.4800 1.7930 301° West 384 442 34,000 -1,385 Level FlightAware ADS-B
Thu 04:02:58 AM 53.5034 1.7545 301° West 446 513 32,500  Descending FlightAware UK
Thu 04:03:18 AM 53.5180 1.6880 301° West 386 444 34,000  Climbing FlightAware ADS-B
Thu 04:03:34 AM 53.5365 1.6617 301° West 448 516 32,500  Descending FlightAware UK
Thu 04:04:03 AM 53.5610 1.5690 301° West 392 451 34,000  Climbing FlightAware ADS-B
Thu 04:04:22 AM 53.5813 1.5359 301° West 450 518 32,500 -2,432 Descending FlightAware UK
Thu 04:04:40 AM 53.5984 1.4881 301° West 452 520 32,500 4,286 Level FlightAware UK
Thu 04:04:43 AM 53.5980 1.4640 301° West 395 455 34,000  Climbing FlightAware ADS-B
Thu 04:04:58 AM 53.6154 1.4399 301° West 452 520 32,500 -2,727 Descending FlightAware UK
Thu 04:05:16 AM 53.6326 1.3915 301° West 454 522 32,500 3,600 Level FlightAware UK
Thu 04:05:23 AM 53.6360 1.3570 301° West 402 463 34,000  Climbing FlightAware ADS-B
Thu 04:05:40 AM 53.6555 1.3266 301° West 460 529 32,500 -2,195 Descending FlightAware UK
Thu 04:06:04 AM 53.6787 1.2609 301° West 464 534 32,500 3,214 Level FlightAware UK
Thu 04:06:08 AM 53.6790 1.2370 301° West 411 473 34,000  Climbing FlightAware ADS-B
Thu 04:06:28 AM 53.7020 1.1946 301° West 466 536 32,500 -2,368 Descending FlightAware UK
Thu 04:06:46 AM 53.7200 1.1436 301° West 468 539 32,500 4,500 Level FlightAware UK
Thu 04:06:48 AM 53.7180 1.1250 301° West 419 482 34,000  Climbing FlightAware ADS-B
Thu 04:07:04 AM 53.7379 1.0922 301° West 474 545 32,500 -2,647 Descending FlightAware UK
Thu 04:07:22 AM 53.7559 1.0408 301° West 476 548 32,500 3,103 Level FlightAware UK
Thu 04:07:33 AM 53.7630 0.9960 301° West 425 489 34,000  Climbing FlightAware ADS-B
Thu 04:07:52 AM 53.7861 0.9544 301° West 474 545 32,500  Descending FlightAware UK
Thu 04:08:13 AM 53.8020 0.8840 301° West 427 491 34,000  Climbing FlightAware ADS-B
Thu 04:08:28 AM 53.8222 0.8501 301° West 476 548 32,500 -2,727 Descending FlightAware UK
Thu 04:08:46 AM 53.8404 0.7977 300° West 476 548 32,500 3,600 Level FlightAware UK
Thu 04:08:53 AM 53.8430 0.7650 300° West 430 495 34,000  Climbing FlightAware ADS-B
Thu 04:09:10 AM 53.8646 0.7277 300° West 476 548 32,500  Descending FlightAware UK
Thu 04:09:33 AM 53.8830 0.6490 300° West 431 496 34,000  Climbing FlightAware ADS-B
Thu 04:09:52 AM 53.9069 0.6044 300° West 478 550 32,500  Descending FlightAware UK
Thu 04:10:18 AM 53.9230 0.5340 300° West 431 496 34,000  Climbing FlightAware ADS-B
Thu 04:10:39 AM 53.9552 0.4638 300° West 476 548 32,500  Descending FlightAware UK
Thu 04:10:58 AM 53.9660 0.4070 300° West 430 495 34,000  Climbing FlightAware ADS-B
Thu 04:11:15 AM 53.9911 0.3579 300° West 476 548 32,500 -2,571 Descending FlightAware UK
Thu 04:11:33 AM 54.0089 0.3050 300° West 480 552 32,500 3,214 Level FlightAware UK
Thu 04:11:43 AM 54.0110 0.2740 300° West 432 497 34,000  Climbing FlightAware ADS-B
Thu 04:12:15 AM 54.0593 0.1889 300° West 478 550 32,500  Descending FlightAware UK
Thu 04:12:18 AM 54.0500 0.1860 300° West 444 511 34,000  Climbing FlightAware ADS-B
Thu 04:12:33 AM 54.0843 0.1417 300° West 476 548 32,500 -2,308 Descending FlightAware UK
Thu 04:12:57 AM 54.1179 0.0791 313° West 474 545 32,500 2,571 Level FlightAware UK
Thu 04:13:08 AM 54.1220 0.0510 313° West 445 512 34,000  Climbing FlightAware ADS-B
Thu 04:13:27 AM 54.1598 0.0021 313° West 470 541 32,500  Descending FlightAware UK
Thu 04:13:48 AM 54.1760 -0.0480 313° West 443 510 34,000  Climbing FlightAware ADS-B
Thu 04:14:21 AM 54.2349 -0.1376 313° West 470 541 32,500  Descending FlightAware UK
Thu 04:14:28 AM 54.2330 -0.1530 313° West 440 506 34,000  Climbing FlightAware ADS-B
Thu 04:14:45 AM 54.2678 -0.1997 313° West 468 539 32,500 -2,571 Descending FlightAware UK
Thu 04:15:03 AM 54.2924 -0.2462 312° West 468 539 32,500 3,214 Level FlightAware UK
Thu 04:15:13 AM 54.2970 -0.2750 312° West 438 504 34,000  Climbing FlightAware ADS-B
Thu 04:15:33 AM 54.3330 -0.3233 312° West 470 541 32,500  Descending FlightAware UK
Thu 04:15:53 AM 54.3460 -0.3660 312° West 436 502 34,000  Climbing FlightAware ADS-B
Thu 04:16:15 AM 54.3901 -0.4317 312° West 468 539 32,500 -2,250 Descending FlightAware UK
Thu 04:16:33 AM 54.4143 -0.4782 312° West 466 536 32,500 3,913 Level FlightAware UK
Thu 04:16:38 AM 54.4090 -0.4880 312° West 434 499 34,000  Climbing FlightAware ADS-B
Thu 04:16:57 AM 54.4466 -0.5399 312° West 462 532 32,500  Descending FlightAware UK
Thu 04:17:18 AM 54.4590 -0.5820 312° West 430 495 34,000  Climbing FlightAware ADS-B
Thu 04:17:33 AM 54.4944 -0.6315 312° West 462 532 32,500  Descending FlightAware UK
Thu 04:17:58 AM 54.5100 -0.6810 312° West 430 495 34,000 1,286 Climbing FlightAware ADS-B
Thu 04:18:43 AM 54.5740 -0.8040 312° West 427 491 34,000 -1,385 Level FlightAware ADS-B
Thu 04:19:03 AM 54.6137 -0.8616 312° West 452 520 32,500  Descending FlightAware UK
Thu 04:19:23 AM 54.6250 -0.9010 312° West 429 494 34,000  Climbing FlightAware ADS-B
Thu 04:19:45 AM 54.6692 -0.9694 312° West 454 522 32,500  Descending FlightAware UK
Thu 04:20:08 AM 54.6860 -1.0210 312° West 430 495 34,000  Climbing FlightAware ADS-B
Thu 04:20:26 AM 54.7244 -1.0770 312° West 456 525 32,500  Descending FlightAware UK
Thu 04:20:48 AM 54.7410 -1.1280 312° West 430 495 34,000  Climbing FlightAware ADS-B
Thu 04:21:14 AM 54.7875 -1.2007 312° West 458 527 32,500  Descending FlightAware UK
Thu 04:21:28 AM 54.7940 -1.2310 312° West 432 497 34,000  Climbing FlightAware ADS-B
Thu 04:21:44 AM 54.8273 -1.2787 312° West 460 529 32,500 -2,647 Descending FlightAware UK
Thu 04:22:02 AM 54.8511 -1.3258 311° West 460 529 32,500 3,103 Level FlightAware UK
Thu 04:22:13 AM 54.8540 -1.3500 311° West 431 496 34,000  Climbing FlightAware ADS-B
Thu 04:22:44 AM 54.9061 -1.4351 311° West 460 529 32,500  Descending FlightAware UK
Thu 04:22:53 AM 54.9060 -1.4530 311° West 430 495 34,000  Climbing FlightAware ADS-B
Thu 04:23:08 AM 54.9379 -1.4981 311° West 458 527 32,500 -2,727 Descending FlightAware UK
Thu 04:23:26 AM 54.9616 -1.5454 311° West 460 529 32,500 3,000 Level FlightAware UK
Thu 04:23:38 AM 54.9620 -1.5640 311° West 438 504 34,000  Climbing FlightAware ADS-B
Thu 04:24:08 AM 55.0175 -1.6572 311° West 466 536 32,500  Descending FlightAware UK
Thu 04:24:18 AM 55.0160 -1.6740 311° West 434 499 34,000 -200 Climbing FlightAware ADS-B
Thu 04:24:38 AM 55.0508 -1.7442 311° West 464 534 32,400  Descending FlightAware UK
Thu 04:24:58 AM 55.0570 -1.7940 311° West 427 491 34,000 1,477 Climbing FlightAware ADS-B
Thu 04:25:43 AM 55.0970 -1.9340 297° West 428 493 34,000  Level FlightAware ADS-B
Thu 04:26:23 AM 55.1330 -2.0610 296° West 432 497 34,000 -1,636 Level FlightAware ADS-B
Thu 04:26:38 AM 55.1572 -2.1163 296° West 466 536 32,500 -2,727 Descending FlightAware UK
Thu 04:26:56 AM 55.1729 -2.1721 296° West 462 532 32,500 3,600 Level FlightAware UK
Thu 04:27:03 AM 55.1680 -2.1870 296° West 434 499 34,000  Climbing FlightAware ADS-B
Thu 04:27:20 AM 55.1938 -2.2481 296° West 468 539 32,500 -2,571 Descending FlightAware UK
Thu 04:27:38 AM 55.2096 -2.3052 296° West 474 545 32,500 3,913 Level FlightAware UK
Thu 04:27:43 AM 55.1990 -2.3000 296° West 436 502 34,000  Climbing FlightAware ADS-B
Thu 04:28:08 AM 55.2359 -2.4005 296° West 470 541 32,500 -2,143 Descending FlightAware UK
Thu 04:28:25 AM 55.2514 -2.4571 296° West 470 541 32,500 4,500 Level FlightAware UK
Thu 04:28:28 AM 55.2400 -2.4510 296° West 436 502 34,000  Climbing FlightAware ADS-B
Thu 04:28:44 AM 55.2674 -2.5151 296° West 472 543 32,500 -2,727 Descending FlightAware UK
Thu 04:29:01 AM 55.2830 -2.5719 296° West 472 543 32,500 3,103 Level FlightAware UK
Thu 04:29:13 AM 55.2800 -2.5980 296° West 437 503 34,000  Climbing FlightAware ADS-B
Thu 04:29:37 AM 55.3143 -2.6874 296° West 466 536 32,500  Descending FlightAware UK
Thu 04:29:53 AM 55.3150 -2.7250 296° West 439 505 34,000  Climbing FlightAware ADS-B
Thu 04:30:13 AM 55.3455 -2.8024 296° West 468 539 32,500 -2,368 Descending FlightAware UK
Thu 04:30:31 AM 55.3613 -2.8609 295° West 470 541 32,500 4,500 Level FlightAware UK
Thu 04:30:33 AM 55.3500 -2.8550 295° West 441 507 34,000 1,915 Climbing FlightAware ADS-B
Thu 04:31:18 AM 55.3860 -2.9880 296° West 441 507 34,000 -1,406 Level FlightAware ADS-B
Thu 04:31:37 AM 55.4184 -3.0737 296° West 472 543 32,500 -2,432 Descending FlightAware UK
Thu 04:31:55 AM 55.4339 -3.1321 295° West 468 539 32,500 3,462 Level FlightAware UK
Thu 04:32:03 AM 55.4220 -3.1240 295° West 441 507 34,000  Climbing FlightAware ADS-B
Thu 04:32:19 AM 55.4546 -3.2098 295° West 474 545 32,500 -2,647 Descending FlightAware UK
Thu 04:32:37 AM 55.4702 -3.2683 295° West 474 545 32,500 2,647 Level FlightAware UK
Thu 04:32:53 AM 55.4660 -3.2910 295° West 442 509 34,000  Climbing FlightAware ADS-B
Thu 04:33:19 AM 55.5060 -3.4048 295° West 470 541 32,500  Descending FlightAware UK
Thu 04:33:33 AM 55.5000 -3.4180 295° West 440 506 34,000  Climbing FlightAware ADS-B
Thu 04:33:49 AM 55.5316 -3.5022 295° West 472 543 32,500 -2,647 Descending FlightAware UK
Thu 04:34:07 AM 55.5470 -3.5605 295° West 470 541 32,500 3,103 Level FlightAware UK
Thu 04:34:18 AM 55.5390 -3.5670 295° West 439 505 34,000  Climbing FlightAware ADS-B
Thu 04:34:37 AM 55.5724 -3.6578 295° West 470 541 32,500 -2,432 Descending FlightAware UK
Thu 04:34:55 AM 55.5875 -3.7165 294° West 474 545 32,500 4,286 Level FlightAware UK
Thu 04:34:58 AM 55.5740 -3.7010 294° West 439 505 34,000 -250 Climbing FlightAware ADS-B
Thu 04:35:19 AM 55.6078 -3.7944 294° West 466 536 32,400 -2,308 Descending FlightAware UK
Thu 04:35:37 AM 55.6229 -3.8529 295° West 464 534 32,500 2,462 Climbing FlightAware UK
Thu 04:35:58 AM 55.6210 -3.8830 295° West 439 505 34,000  Climbing FlightAware ADS-B
Thu 04:36:13 AM 55.6530 -3.9699 295° West 470 541 32,500 -2,727 Descending FlightAware UK
Thu 04:36:31 AM 55.6681 -4.0284 295° West 468 539 32,500 3,600 Level FlightAware UK
Thu 04:36:38 AM 55.6570 -4.0240 295° West 438 504 34,000  Climbing FlightAware ADS-B
Thu 04:37:13 AM 55.7026 -4.1645 295° West 464 534 32,500  Descending FlightAware UK
Thu 04:37:23 AM 55.6900 -4.1570 295° West 437 503 34,000  Climbing FlightAware ADS-B
Thu 04:37:43 AM 55.7275 -4.2624 295° West 466 536 32,500  Descending FlightAware UK
Thu 04:37:48 AM 55.7140 -4.2470 295° West 437 503 34,000  Climbing FlightAware ADS-B
Thu 04:38:07 AM 55.7472 -4.3402 295° West 464 534 32,500 -2,595 Descending FlightAware UK
Thu 04:38:25 AM 55.7619 -4.3990 294° West 462 532 32,400 4,286 Descending FlightAware UK
Thu 04:38:28 AM 55.7410 -4.3540 294° West 437 503 34,000 167 Climbing FlightAware ADS-B
Thu 04:39:01 AM 55.7911 -4.5149 294° West 464 534 32,500  Descending FlightAware UK
Thu 04:39:13 AM 55.7850 -4.5290 294° West 435 501 34,000  Climbing FlightAware ADS-B
Thu 04:39:31 AM 55.8152 -4.6122 294° West 458 527 32,500  Descending FlightAware UK
Thu 04:39:58 AM 55.8240 -4.6860 294° West 436 502 34,000  Climbing FlightAware ADS-B
Thu 04:40:13 AM 55.8495 -4.7492 294° West 464 534 32,500 -2,727 Descending FlightAware UK
Thu 04:40:31 AM 55.8640 -4.8075 294° West 462 532 32,500 3,600 Level FlightAware UK
Thu 04:40:38 AM 55.8560 -4.8170 294° West 435 501 34,000  Climbing FlightAware ADS-B
Thu 04:41:06 AM 55.8927 -4.9241 294° West 460 529 32,500  Descending FlightAware UK
Thu 04:41:18 AM 55.8890 -4.9490 294° West 436 502 34,000 1,579 Climbing FlightAware ADS-B
Thu 04:42:03 AM 55.9250 -5.0980 293° West 434 499 34,000 -1,500 Level FlightAware ADS-B
Thu 04:42:18 AM 55.9502 -5.1603 293° West 462 532 32,500 -2,727 Descending FlightAware UK
Thu 04:42:36 AM 55.9644 -5.2195 293° West 466 536 32,500 3,600 Level FlightAware UK
Thu 04:42:43 AM 55.9570 -5.2280 293° West 434 499 34,000 1,731 Climbing FlightAware ADS-B
Thu 04:43:28 AM 55.9930 -5.3770 293° West 435 501 34,000 -1,385 Level FlightAware ADS-B
Thu 04:43:48 AM 56.0216 -5.4560 293° West 464 534 32,500  Descending FlightAware UK
Thu 04:43:58 AM 56.0170 -5.4770 293° West 436 502 34,000  Climbing FlightAware ADS-B
Thu 04:44:18 AM 56.0452 -5.5553 293° West 462 532 32,500  Descending FlightAware UK
Thu 04:44:38 AM 56.0480 -5.6080 293° West 436 502 34,000  Climbing FlightAware ADS-B
Thu 04:44:54 AM 56.0735 -5.6746 293° West 454 522 32,500 -2,647 Descending FlightAware UK
Thu 04:45:12 AM 56.0877 -5.7344 293° West 460 529 32,500 3,750 Level FlightAware UK
Thu 04:45:18 AM 56.0770 -5.7290 293° West 437 503 34,000  Climbing FlightAware ADS-B
Thu 04:45:36 AM 56.1066 -5.8144 293° West 466 536 32,500 -2,500 Descending FlightAware UK
Thu 04:45:54 AM 56.1207 -5.8746 293° West 464 534 32,500 4,091 Level FlightAware UK
Thu 04:45:58 AM 56.1120 -5.8780 293° West 438 504 34,000  Climbing FlightAware ADS-B
Thu 04:46:18 AM 56.1397 -5.9549 293° West 464 534 32,500 171 Descending FlightAware UK
Thu 04:46:33 AM 56.1380 -5.9880 293° West 440 506 34,100 667 Climbing FlightAware ADS-B
Thu 04:46:36 AM 56.1539 -6.0152 293° West 464 534 32,700 -2,000 Descending FlightAware UK
Thu 04:47:00 AM 56.1726 -6.0961 293° West 466 536 33,200 1,143 Climbing FlightAware UK
Thu 04:47:18 AM 56.1866 -6.1568 293° West 466 536 33,500 6,000 Climbing FlightAware UK
Thu 04:47:18 AM 56.1740 -6.1450 293° West 441 507 35,000 1,000 Climbing FlightAware ADS-B
Thu 04:47:36 AM 56.2007 -6.2176 293° West 470 541 33,800 -1,500 Descending FlightAware UK
Thu 04:47:54 AM 56.2146 -6.2776 293° West 466 536 34,100 3,750 Climbing FlightAware UK
Thu 04:48:08 AM 56.2150 -6.3210 293° West 439 505 35,800 800 Climbing FlightAware ADS-B
Thu 04:48:24 AM 56.2378 -6.3785 293° West 466 536 34,500 400 Descending FlightAware UK
Thu 04:48:38 AM 56.2390 -6.4240 293° West 439 505 36,000  Climbing FlightAware ADS-B
Thu 04:49:00 AM 56.2657 -6.4996 293° West 464 534 34,500 -2,250 Descending FlightAware UK
Thu 04:49:18 AM 56.2795 -6.5604 292° West 466 536 34,500 2,727 Level FlightAware UK
Thu 04:49:33 AM 56.2780 -6.5980 292° West 442 509 36,000  Climbing FlightAware ADS-B
Thu 04:49:48 AM 56.3026 -6.6623 292° West 468 539 34,500  Descending FlightAware UK
Thu 04:50:13 AM 56.3100 -6.7360 292° West 439 505 36,000  Climbing FlightAware ADS-B
Thu 04:50:42 AM 56.3438 -6.8446 292° West 464 534 34,500  Descending FlightAware UK
Thu 04:50:58 AM 56.3440 -6.8890 292° West 440 506 36,000  Climbing FlightAware ADS-B
Thu 04:51:18 AM 56.3707 -6.9655 292° West 462 532 34,500  Descending FlightAware UK
Thu 04:51:38 AM 56.3760 -7.0300 292° West 439 505 36,000  Climbing FlightAware ADS-B
Thu 04:51:54 AM 56.3976 -7.0864 292° West 462 532 34,500 -2,647 Descending FlightAware UK
Thu 04:52:12 AM 56.4108 -7.1470 292° West 460 529 34,500 3,750 Level FlightAware UK
Thu 04:52:18 AM 56.4070 -7.1720 292° West 438 504 36,000  Climbing FlightAware ADS-B
Thu 04:52:36 AM 56.4287 -7.2278 292° West 462 532 34,500  Descending FlightAware UK
Thu 04:52:58 AM 56.4370 -7.3050 292° West 437 503 36,000  Climbing FlightAware ADS-B
Thu 04:53:18 AM 56.4598 -7.3690 292° West 460 529 34,500 -2,368 Descending FlightAware UK
Thu 04:53:36 AM 56.4731 -7.4294 292° West 462 532 34,500  Level FlightAware UK
Thu 04:53:54 AM 56.4863 -7.4899 292° West 460 529 34,500  Level FlightAware UK
Thu 04:54:12 AM 56.4993 -7.5498 291° West 462 532 34,500  Level FlightAware UK
Thu 04:54:30 AM 56.5125 -7.6104 292° West 460 529 34,500 3,462 Level FlightAware UK
Thu 04:54:38 AM 56.5080 -7.6310 292° West 437 503 36,000  Climbing FlightAware ADS-B
Thu 04:54:54 AM 56.5302 -7.6913 292° West 462 532 34,500 -2,250 Descending FlightAware UK
Thu 04:55:18 AM 56.5475 -7.7725 291° West 464 534 34,500 3,103 Level FlightAware UK
Thu 04:55:23 AM 56.5420 -7.7880 291° West 437 503 36,000  Climbing FlightAware ADS-B
Thu 04:55:48 AM 56.5692 -7.8742 291° West 462 532 34,500  Descending FlightAware UK
Thu 04:56:03 AM 56.5700 -7.9190 291° West 435 501 36,000  Climbing FlightAware ADS-B
Thu 04:56:18 AM 56.5909 -7.9760 291° West 464 534 34,500 -2,727 Descending FlightAware UK
Thu 04:56:36 AM 56.6039 -8.0371 291° West 466 536 34,500 3,000 Level FlightAware UK
Thu 04:56:48 AM 56.6030 -8.0770 291° West 437 503 36,000  Climbing FlightAware ADS-B
Thu 04:57:06 AM 56.6255 -8.1393 291° West 464 534 34,500  Descending FlightAware UK
Thu 04:57:28 AM 56.6330 -8.2150 291° West 436 502 36,000  Climbing FlightAware ADS-B
Thu 04:57:48 AM 56.6558 -8.2826 291° West 466 536 34,500 -2,368 Descending FlightAware UK
Thu 04:58:06 AM 56.6686 -8.3443 291° West 466 536 34,500 4,500 Level FlightAware UK
Thu 04:58:08 AM 56.6610 -8.3520 291° West 437 503 36,000  Climbing FlightAware ADS-B
Thu 04:58:24 AM 56.6814 -8.4062 291° West 464 534 34,500 -2,647 Descending FlightAware UK
Thu 04:58:42 AM 56.6942 -8.4680 291° West 464 534 34,500 3,103 Level FlightAware UK
Thu 04:58:53 AM 56.6940 -8.5090 291° West 438 504 36,000  Climbing FlightAware ADS-B
Thu 04:59:12 AM 56.7156 -8.5712 291° West 466 536 34,500  Descending FlightAware UK
Thu 04:59:33 AM 56.7220 -8.6460 291° West 439 505 36,000  Climbing FlightAware ADS-B
Thu 04:59:48 AM 56.7411 -8.6951 291° West 468 539 34,500 -2,727 Descending FlightAware UK
Thu 05:00:06 AM 56.7538 -8.7572 290° West 470 541 34,500 3,600 Level FlightAware UK
Thu 05:00:13 AM 56.7520 -8.7880 290° West 438 504 36,000  Climbing FlightAware ADS-B
Thu 05:00:30 AM 56.7710 -8.8400 290° West 468 539 34,500 -2,571 Descending FlightAware UK
Thu 05:00:48 AM 56.7835 -8.9015 290° West 466 536 34,500 3,214 Level FlightAware UK
Thu 05:00:58 AM 56.7830 -8.9410 290° West 438 504 36,000  Climbing FlightAware ADS-B
Thu 05:01:18 AM 56.8044 -9.0054 290° West 466 536 34,500  Descending FlightAware UK
Thu 05:01:38 AM 56.8120 -9.0840 290° West 438 504 36,000 1,385 Climbing FlightAware ADS-B
Thu 05:02:23 AM 56.8430 -9.2380 290° West 438 504 36,000  Level FlightAware ADS-B
Thu 05:03:03 AM 56.8690 -9.3700 290° West 441 507 36,000  Level FlightAware ADS-B
Thu 05:03:38 AM 56.8920 -9.4850 290° West 442 509 36,000  Level FlightAware ADS-B
Thu 05:04:28 AM 56.9300 -9.6770 290° West 441 507 36,000  Level FlightAware ADS-B
Thu 05:05:13 AM 56.9610 -9.8380 290° West 442 509 36,000  Level FlightAware ADS-B
Thu 05:05:53 AM 56.9890 -9.9810 290° West 439 505 36,000  Level FlightAware ADS-B
Thu 05:06:33 AM 57.0180 -10.1190 291° West 442 509 36,000  Level FlightAware ADS-B
Thu 05:07:18 AM 57.0530 -10.2760 292° West 438 504 36,000  Level FlightAware ADS-B
Thu 05:07:58 AM 57.0870 -10.4120 295° West 439 505 36,000  Level FlightAware ADS-B
Thu 05:08:38 AM 57.1280 -10.5460 299° West 443 510 36,000  Level FlightAware ADS-B
Thu 05:09:23 AM 57.1640 -10.6980 294° West 439 505 36,000  Level FlightAware ADS-B
Thu 05:10:08 AM 57.1980 -10.8530 292° West 442 509 36,000  Level FlightAware ADS-B
Thu 05:10:48 AM 57.2290 -10.9960 292° West 442 509 36,000  Level FlightAware ADS-B
Thu 05:11:28 AM 57.2590 -11.1340 292° West 440 506 36,000  Level FlightAware ADS-B
Thu 05:12:08 AM 57.2880 -11.2740 291° West 440 506 36,000  Level FlightAware ADS-B
Thu 05:12:48 AM 57.3160 -11.4060 291° West 440 506 36,000  Level FlightAware ADS-B
Thu 05:13:38 AM 57.3470 -11.5560 291° West 440 506 36,000  Level FlightAware ADS-B
Thu 05:14:13 AM 57.3770 -11.6990 291° West 435 501 36,000  Level FlightAware ADS-B
Thu 05:14:53 AM 57.4000 -11.8190 290° West 435 501 36,000  Level FlightAware ADS-B
Thu 05:15:33 AM 57.4240 -11.9380 291° West 435 501 36,000  Level FlightAware ADS-B
Thu 05:16:23 AM 57.4530 -12.0870 290° West 435 501 36,000  Level FlightAware ADS-B
Thu 05:17:03 AM 57.4760 -12.2070 290° West 435 501 36,000  Level FlightAware ADS-B
Thu 05:17:43 AM 57.5000 -12.3270 290° West 435 501 36,000  Level FlightAware ADS-B
Thu 05:18:23 AM 57.5230 -12.4460 290° West 435 501 36,000  Level FlightAware ADS-B
Thu 05:19:03 AM 57.5460 -12.5660 290° West 435 501 36,000  Level FlightAware ADS-B
Thu 05:19:53 AM 57.5760 -12.7160 291° West 435 501 36,000  Level FlightAware ADS-B
Thu 05:20:33 AM 57.5990 -12.8360 290° West 435 501 36,000  Level FlightAware ADS-B
Thu 05:21:13 AM 57.6220 -12.9560 290° West 435 501 36,000  Level FlightAware ADS-B
Thu 05:21:53 AM 57.6460 -13.0760 291° West 435 501 36,000  Level FlightAware ADS-B
Thu 05:22:43 AM 57.6750 -13.2260 290° West 435 501 36,000  Level FlightAware ADS-B
Thu 05:23:23 AM 57.6980 -13.3470 290° West 435 501 36,000  Level FlightAware ADS-B
Thu 05:25:00 AM 57.7074 -13.6845 273° West  Level Estimated
Thu 05:26:00 AM 57.7127 -13.8934 273° West  Level Estimated
Thu 05:27:00 AM 57.7177 -14.1023 273° West  Level Estimated
Thu 05:28:00 AM 57.7223 -14.3113 272° West  Level Estimated
Thu 05:29:00 AM 57.7266 -14.5203 272° West  Level Estimated
Thu 05:30:00 AM 57.7306 -14.7294 272° West  Level Estimated
Thu 05:31:00 AM 57.7342 -14.9385 272° West  Level Estimated
Thu 05:32:00 AM 57.7374 -15.1477 272° West  Level Estimated
Thu 05:33:00 AM 57.7404 -15.3569 272° West  Level Estimated
Thu 05:34:00 AM 57.7430 -15.5661 271° West  Level Estimated
Thu 05:35:00 AM 57.7452 -15.7754 271° West  Level Estimated
Thu 05:36:00 AM 57.7471 -15.9847 271° West  Level Estimated
Thu 05:37:00 AM 57.7486 -16.1940 271° West  Level Estimated
Thu 05:38:00 AM 57.7498 -16.4033 271° West  Level Estimated
Thu 05:39:00 AM 57.7677 -16.6174 279° West  Level FlightAware Approximate
Thu 05:40:00 AM 57.7851 -16.8316 279° West  Level FlightAware Approximate
Thu 05:41:00 AM 57.8023 -17.0461 279° West  Level FlightAware Approximate
Thu 05:42:00 AM 57.8190 -17.2607 278° West  Level FlightAware Approximate
Thu 05:43:00 AM 57.8354 -17.4756 278° West  Level FlightAware Approximate
Thu 05:44:00 AM 57.8515 -17.6906 278° West  Level FlightAware Approximate
Thu 05:45:00 AM 57.8671 -17.9059 278° West  Level FlightAware Approximate
Thu 05:46:00 AM 57.8824 -18.1213 278° West  Level FlightAware Approximate
Thu 05:47:00 AM 57.8974 -18.3369 278° West  Level FlightAware Approximate
Thu 05:48:00 AM 57.9120 -18.5527 277° West  Level FlightAware Approximate
Thu 05:49:00 AM 57.9262 -18.7686 277° West  Level FlightAware Approximate
Thu 05:50:00 AM 57.9400 -18.9848 277° West  Level FlightAware Approximate
Thu 05:51:00 AM 57.9535 -19.2010 277° West  Level FlightAware Approximate
Thu 05:52:00 AM 57.9666 -19.4175 277° West  Level FlightAware Approximate
Thu 05:52:00 AM 58.0000 -20.0000 274° West 423 487 36,000  Level ETMS Enhanced Traffic Management System
Thu 05:53:00 AM 57.9793 -19.6341 276° West  Level FlightAware Approximate
Thu 05:54:00 AM 57.9917 -19.8508 276° West  Level FlightAware Approximate
Thu 05:55:00 AM 58.0025 -20.0684 274° West  Level FlightAware Approximate
Thu 05:56:00 AM 58.0104 -20.2860 274° West  Level FlightAware Approximate
Thu 05:57:00 AM 58.0178 -20.5038 274° West  Level FlightAware Approximate
Thu 05:58:00 AM 58.0453 -21.3302 273° West 423 487 36,000  Level FlightAware Transoceanic
Thu 05:59:00 AM 58.0515 -21.5522 273° West 423 487 36,000  Level FlightAware Transoceanic
Thu 06:00:00 AM 58.0573 -21.7743 273° West 423 487 36,000  Level FlightAware Transoceanic
Thu 06:01:00 AM 58.0627 -21.9965 273° West 423 487 36,000  Level FlightAware Transoceanic
Thu 06:02:00 AM 58.0678 -22.2187 272° West 423 487 36,000  Level FlightAware Transoceanic
Thu 06:03:00 AM 58.0724 -22.4410 272° West 423 487 36,000  Level FlightAware Transoceanic
Thu 06:04:00 AM 58.0767 -22.6633 272° West 423 487 36,000  Level FlightAware Transoceanic
Thu 06:05:00 AM 58.0806 -22.8857 272° West 423 487 36,000  Level FlightAware Transoceanic
Thu 06:06:00 AM 58.0841 -23.1081 272° West 423 487 36,000  Level FlightAware Transoceanic
Thu 06:07:00 AM 58.0872 -23.3306 271° West 423 487 36,000  Level FlightAware Transoceanic
Thu 06:08:00 AM 58.0899 -23.5531 271° West 423 487 36,000  Level FlightAware Transoceanic
Thu 06:09:00 AM 58.0922 -23.7757 271° West 423 487 36,000  Level FlightAware Transoceanic
Thu 06:10:00 AM 58.0942 -23.9982 271° West 423 487 36,000  Level FlightAware Transoceanic
Thu 06:11:00 AM 58.0957 -24.2208 271° West 423 487 36,000  Level FlightAware Transoceanic
Thu 06:12:00 AM 58.0969 -24.4434 270° West 423 487 36,000  Level FlightAware Transoceanic
Thu 06:13:00 AM 58.0976 -24.6661 270° West 423 487 36,000  Level FlightAware Transoceanic
Thu 06:14:00 AM 58.0980 -24.8887 270° West 423 487 36,000  Level FlightAware Transoceanic
Thu 06:15:00 AM 58.0980 -25.1113 270° West 423 487 36,000  Level FlightAware Transoceanic
Thu 06:16:00 AM 58.0976 -25.3339 270° West 423 487 36,000  Level FlightAware Transoceanic
Thu 06:17:00 AM 58.0969 -25.5566 270° West 423 487 36,000  Level FlightAware Transoceanic
Thu 06:18:00 AM 58.0957 -25.7792 269° West 423 487 36,000  Level FlightAware Transoceanic
Thu 06:19:00 AM 58.0942 -26.0018 269° West 423 487 36,000  Level FlightAware Transoceanic
Thu 06:20:00 AM 58.0922 -26.2243 269° West 423 487 36,000  Level FlightAware Transoceanic
Thu 06:21:00 AM 58.0899 -26.4469 269° West 423 487 36,000  Level FlightAware Transoceanic
Thu 06:22:00 AM 58.0872 -26.6694 269° West 423 487 36,000  Level FlightAware Transoceanic
Thu 06:23:00 AM 58.0841 -26.8919 268° West 423 487 36,000  Level FlightAware Transoceanic
Thu 06:24:00 AM 58.0806 -27.1143 268° West 423 487 36,000  Level FlightAware Transoceanic
Thu 06:25:00 AM 58.0767 -27.3367 268° West 423 487 36,000  Level FlightAware Transoceanic
Thu 06:26:00 AM 58.0724 -27.5590 268° West 423 487 36,000  Level FlightAware Transoceanic
Thu 06:27:00 AM 58.0678 -27.7813 268° West 423 487 36,000  Level FlightAware Transoceanic
Thu 06:28:00 AM 58.0627 -28.0035 267° West 423 487 36,000  Level FlightAware Transoceanic
Thu 06:29:00 AM 58.0573 -28.2257 267° West 423 487 36,000  Level FlightAware Transoceanic
Thu 06:30:00 AM 58.0515 -28.4478 267° West 423 487 36,000  Level FlightAware Transoceanic
Thu 06:31:00 AM 58.0453 -28.6698 267° West 423 487 36,000  Level FlightAware Transoceanic
Thu 06:32:00 AM 58.0387 -28.8917 267° West 423 487 36,000  Level FlightAware Transoceanic
Thu 06:33:00 AM 58.0317 -29.1136 267° West 423 487 36,000  Level FlightAware Transoceanic
Thu 06:34:00 AM 58.0244 -29.3353 266° West 423 487 36,000  Level FlightAware Transoceanic
Thu 06:35:00 AM 58.0166 -29.5570 266° West 423 487 36,000  Level FlightAware Transoceanic
Thu 06:36:00 AM 58.0085 -29.7785 266° West 423 487 36,000 17 Level FlightAware Transoceanic
Thu 06:37:00 AM 58.0001 -29.9961 266° West  Level FlightAware Approximate
Thu 06:38:00 AM 57.9916 -30.2136 266° West  Level FlightAware Approximate
Thu 06:39:00 AM 58.0081 -30.2097 274° West  Level FlightAware Approximate
Thu 06:40:00 AM 58.0161 -30.4274 274° West  Level FlightAware Approximate
Thu 06:41:00 AM 58.0237 -30.6451 274° West  Level FlightAware Approximate
Thu 06:42:00 AM 58.0310 -30.8630 274° West  Level FlightAware Approximate
Thu 06:43:00 AM 58.0379 -31.0809 274° West  Level FlightAware Approximate
Thu 06:44:00 AM 58.0444 -31.2989 273° West  Level FlightAware Approximate
Thu 06:45:00 AM 58.0505 -31.5170 273° West  Level FlightAware Approximate
Thu 06:46:00 AM 58.0563 -31.7351 273° West  Level FlightAware Approximate
Thu 06:47:00 AM 58.0617 -31.9533 273° West  Level FlightAware Approximate
Thu 06:48:00 AM 58.0667 -32.1716 273° West  Level FlightAware Approximate
Thu 06:49:00 AM 58.0714 -32.3899 272° West  Level FlightAware Approximate
Thu 06:50:00 AM 58.0757 -32.6083 272° West  Level FlightAware Approximate
Thu 06:51:00 AM 58.0796 -32.8268 272° West  Level FlightAware Approximate
Thu 06:52:00 AM 58.0831 -33.0453 272° West  Level FlightAware Approximate
Thu 06:53:00 AM 58.0863 -33.2638 272° West  Level FlightAware Approximate
Thu 06:54:00 AM 58.0891 -33.4824 271° West  Level FlightAware Approximate
Thu 06:55:00 AM 58.0915 -33.7010 271° West  Level FlightAware Approximate
Thu 06:56:00 AM 58.0935 -33.9196 271° West  Level FlightAware Approximate
Thu 06:57:00 AM 58.0952 -34.1383 271° West  Level FlightAware Approximate
Thu 06:58:00 AM 58.0965 -34.3569 271° West  Level FlightAware Approximate
Thu 06:59:00 AM 58.0974 -34.5756 271° West  Level FlightAware Approximate
Thu 07:00:00 AM 58.0979 -34.7943 270° West  Level FlightAware Approximate
Thu 07:01:00 AM 58.0981 -35.0130 270° West  Level FlightAware Approximate
Thu 07:02:00 AM 58.0979 -35.2317 270° West  Level FlightAware Approximate
Thu 07:03:00 AM 58.0973 -35.4504 270° West  Level FlightAware Approximate
Thu 07:04:00 AM 58.0963 -35.6691 270° West  Level FlightAware Approximate
Thu 07:05:00 AM 58.0950 -35.8877 269° West  Level FlightAware Approximate
Thu 07:06:00 AM 58.0933 -36.1064 269° West  Level FlightAware Approximate
Thu 07:07:00 AM 58.0912 -36.3250 269° West  Level FlightAware Approximate
Thu 07:08:00 AM 58.0887 -36.5436 269° West  Level FlightAware Approximate
Thu 07:09:00 AM 58.0859 -36.7622 269° West  Level FlightAware Approximate
Thu 07:10:00 AM 58.0827 -36.9807 269° West  Level FlightAware Approximate
Thu 07:11:00 AM 58.0791 -37.1992 268° West  Level FlightAware Approximate
Thu 07:12:00 AM 58.0752 -37.4176 268° West  Level FlightAware Approximate
Thu 07:13:00 AM 58.0709 -37.6360 268° West  Level FlightAware Approximate
Thu 07:14:00 AM 58.0662 -37.8544 268° West  Level FlightAware Approximate
Thu 07:15:00 AM 58.0611 -38.0726 268° West  Level FlightAware Approximate
Thu 07:16:00 AM 58.0556 -38.2908 267° West  Level FlightAware Approximate
Thu 07:17:00 AM 58.0498 -38.5090 267° West  Level FlightAware Approximate
Thu 07:18:00 AM 58.0436 -38.7271 267° West  Level FlightAware Approximate
Thu 07:19:00 AM 58.0371 -38.9450 267° West  Level FlightAware Approximate
Thu 07:20:00 AM 58.0301 -39.1629 267° West  Level FlightAware Approximate
Thu 07:21:00 AM 58.0228 -39.3808 266° West  Level FlightAware Approximate
Thu 07:22:00 AM 58.0151 -39.5985 266° West  Level FlightAware Approximate
Thu 07:23:00 AM 58.0071 -39.8161 266° West  Level FlightAware Approximate
Thu 07:24:00 AM 57.9980 -40.0335 263° West  Level FlightAware Approximate
Thu 07:25:00 AM 57.9846 -40.2501 263° West  Level FlightAware Approximate
Thu 07:26:00 AM 57.9708 -40.4665 263° West  Level FlightAware Approximate
Thu 07:27:00 AM 57.9567 -40.6828 263° West  Level FlightAware Approximate
Thu 07:28:00 AM 57.9422 -40.8988 263° West  Level FlightAware Approximate
Thu 07:29:00 AM 57.9274 -41.1147 263° West  Level FlightAware Approximate
Thu 07:30:00 AM 57.9122 -41.3305 263° West  Level FlightAware Approximate
Thu 07:31:00 AM 57.8966 -41.5460 262° West  Level FlightAware Approximate
Thu 07:32:00 AM 57.8807 -41.7613 262° West  Level FlightAware Approximate
Thu 07:33:00 AM 57.8643 -41.9765 262° West  Level FlightAware Approximate
Thu 07:34:00 AM 57.8477 -42.1914 262° West  Level FlightAware Approximate
Thu 07:35:00 AM 57.8307 -42.4062 262° West  Level FlightAware Approximate
Thu 07:36:00 AM 57.8133 -42.6207 261° West  Level FlightAware Approximate
Thu 07:37:00 AM 57.7955 -42.8351 261° West  Level FlightAware Approximate
Thu 07:38:00 AM 57.7774 -43.0492 261° West  Level FlightAware Approximate
Thu 07:39:00 AM 57.7589 -43.2631 261° West  Level FlightAware Approximate
Thu 07:40:00 AM 57.7401 -43.4768 261° West  Level FlightAware Approximate
Thu 07:41:00 AM 57.7209 -43.6903 261° West  Level FlightAware Approximate
Thu 07:42:00 AM 57.7013 -43.9035 260° West  Level FlightAware Approximate
Thu 07:43:00 AM 57.6814 -44.1165 260° West  Level FlightAware Approximate
Thu 07:44:00 AM 57.6611 -44.3293 260° West  Level FlightAware Approximate
Thu 07:45:00 AM 57.6405 -44.5418 260° West  Level FlightAware Approximate
Thu 07:46:00 AM 57.6195 -44.7541 260° West  Level FlightAware Approximate
Thu 07:47:00 AM 57.5982 -44.9661 259° West  Level FlightAware Approximate
Thu 07:48:00 AM 57.5765 -45.1779 259° West  Level FlightAware Approximate
Thu 07:49:00 AM 57.5544 -45.3894 259° West  Level FlightAware Approximate
Thu 07:50:00 AM 57.5320 -45.6007 259° West  Level FlightAware Approximate
Thu 07:51:00 AM 57.5093 -45.8117 259° West  Level FlightAware Approximate
Thu 07:52:00 AM 57.4861 -46.0224 259° West  Level FlightAware Approximate
Thu 07:53:00 AM 57.4627 -46.2329 258° West  Level FlightAware Approximate
Thu 07:54:00 AM 57.4389 -46.4431 258° West  Level FlightAware Approximate
Thu 07:55:00 AM 57.4147 -46.6530 258° West  Level FlightAware Approximate
Thu 07:56:00 AM 57.3902 -46.8627 258° West  Level FlightAware Approximate
Thu 07:57:00 AM 57.3654 -47.0721 258° West  Level FlightAware Approximate
Thu 07:58:00 AM 57.3408 -47.2814 258° West  Level FlightAware Approximate
Thu 07:59:00 AM 57.3168 -47.4908 258° West  Level FlightAware Approximate
Thu 08:00:00 AM 57.2925 -47.7000 258° West  Level FlightAware Approximate
Thu 08:01:00 AM 57.2679 -47.9089 258° West  Level FlightAware Approximate
Thu 08:02:00 AM 57.2429 -48.1175 258° West  Level FlightAware Approximate
Thu 08:03:00 AM 57.2175 -48.3258 257° West  Level FlightAware Approximate
Thu 08:04:00 AM 57.1919 -48.5339 257° West  Level FlightAware Approximate
Thu 08:05:00 AM 57.1658 -48.7416 257° West  Level FlightAware Approximate
Thu 08:06:00 AM 57.1395 -48.9491 257° West  Level FlightAware Approximate
Thu 08:07:00 AM 57.1128 -49.1562 257° West  Level FlightAware Approximate
Thu 08:08:00 AM 57.0857 -49.3631 257° West  Level FlightAware Approximate
Thu 08:09:00 AM 57.0583 -49.5697 256° West  Level FlightAware Approximate
Thu 08:10:00 AM 57.0306 -49.7759 256° West  Level FlightAware Approximate
Thu 08:11:00 AM 57.0025 -49.9818 256° West  Level FlightAware Approximate
Thu 08:12:00 AM 56.9672 -50.1838 252° West  Level FlightAware Approximate
Thu 08:13:00 AM 56.9309 -50.3850 252° West  Level FlightAware Approximate
Thu 08:14:00 AM 56.8943 -50.5858 252° West  Level FlightAware Approximate
Thu 08:15:00 AM 56.8574 -50.7862 251° West  Level FlightAware Approximate
Thu 08:16:00 AM 56.8202 -50.9863 251° West  Level FlightAware Approximate
Thu 08:17:00 AM 56.7827 -51.1859 251° West  Level FlightAware Approximate
Thu 08:18:00 AM 56.7448 -51.3851 251° West  Level FlightAware Approximate
Thu 08:19:00 AM 56.7066 -51.5839 251° West  Level FlightAware Approximate
Thu 08:20:00 AM 56.6681 -51.7823 251° West  Level FlightAware Approximate
Thu 08:21:00 AM 56.6293 -51.9804 250° West  Level FlightAware Approximate
Thu 08:22:00 AM 56.5901 -52.1780 250° West  Level FlightAware Approximate
Thu 08:23:00 AM 56.5507 -52.3751 250° West  Level FlightAware Approximate
Thu 08:24:00 AM 56.5109 -52.5719 250° West  Level FlightAware Approximate
Thu 08:25:00 AM 56.4709 -52.7683 250° West  Level FlightAware Approximate
Thu 08:26:00 AM 56.4305 -52.9642 250° West  Level FlightAware Approximate
Thu 08:27:00 AM 56.3898 -53.1598 249° West  Level FlightAware Approximate
Thu 08:28:00 AM 56.3488 -53.3549 249° West  Level FlightAware Approximate
Thu 08:29:00 AM 56.3075 -53.5496 249° West  Level FlightAware Approximate
Thu 08:30:00 AM 56.2659 -53.7438 249° West  Level FlightAware Approximate
Thu 08:31:00 AM 56.2240 -53.9377 249° West  Level FlightAware Approximate
Thu 08:32:00 AM 56.1818 -54.1311 249° West  Level FlightAware Approximate
Thu 08:33:00 AM 56.1393 -54.3241 248° West  Level FlightAware Approximate
Thu 08:34:00 AM 56.0965 -54.5167 248° West  Level FlightAware Approximate
Thu 08:35:00 AM 56.0534 -54.7088 248° West  Level FlightAware Approximate
Thu 08:35:04 AM 55.9333 -55.2667 247° West 420 483 38,000  Level Moncton Center
Thu 08:35:23 AM 55.9333 -55.3167 270° West 420 483 38,000  Level Gander Center
Thu 08:36:00 AM 56.0101 -54.8998 248° West  Level FlightAware Approximate
Thu 08:36:23 AM 55.8667 -55.5000 237° Southwest 420 483 38,000  Level Gander Center
Thu 08:37:00 AM 55.9666 -55.0905 248° West  Level FlightAware Approximate
Thu 08:37:23 AM 55.7833 -55.6667 228° Southwest 430 495 38,000  Level Gander Center
Thu 08:38:00 AM 55.9227 -55.2807 248° West  Level FlightAware Approximate
Thu 08:38:23 AM 55.7000 -55.8333 228° Southwest 430 495 38,000  Level Gander Center
Thu 08:39:00 AM 55.8786 -55.4704 248° West  Level FlightAware Approximate
Thu 08:39:23 AM 55.6167 -55.9833 226° Southwest 430 495 38,000  Level Gander Center
Thu 08:40:00 AM 55.8342 -55.6598 247° West  Level FlightAware Approximate
Thu 08:40:23 AM 55.5500 -56.1167 229° Southwest 430 495 38,000  Level Gander Center
Thu 08:41:23 AM 55.4500 -56.2667 220° Southwest 430 495 38,000  Level Gander Center
Thu 08:42:23 AM 55.3667 -56.4333 229° Southwest 430 495 38,000  Level Gander Center
Thu 08:42:44 AM 55.3500 -56.5000 246° West 430 495 38,000  Level Gander Center
Thu 08:43:44 AM 55.2667 -56.6500 226° Southwest 430 495 38,000  Level Gander Center
Thu 08:44:23 AM 55.2000 -56.7500 221° Southwest 430 495 38,000  Level Gander Center
Thu 08:45:23 AM 55.1167 -56.8667 219° Southwest 430 495 38,000  Level Gander Center
Thu 08:46:04 AM 55.0667 -56.9833 233° Southwest 430 495 38,000  Level Moncton Center
Thu 08:47:04 AM 54.9833 -57.1500 229° Southwest 440 506 38,000  Level Moncton Center
Thu 08:47:23 AM 54.9500 -57.1833 210° Southwest 440 506 38,000  Level Gander Center
Thu 08:47:44 AM 54.9333 -57.2333 240° Southwest 440 506 38,000  Level Gander Center
Thu 08:48:44 AM 54.8333 -57.4000 224° Southwest 430 495 38,000  Level Gander Center
Thu 08:49:44 AM 54.7667 -57.5500 232° Southwest 440 506 38,000  Level Gander Center
Thu 08:50:23 AM 54.7167 -57.6333 224° Southwest 440 506 38,000  Level Gander Center
Thu 08:51:23 AM 54.6167 -57.7833 221° Southwest 440 506 38,000  Level Gander Center
Thu 08:52:23 AM 54.5333 -57.9333 226° Southwest 440 506 38,000  Level Gander Center
Thu 08:53:23 AM 54.4333 -58.1000 224° Southwest 440 506 38,000  Level Gander Center
Thu 08:54:23 AM 54.3667 -58.2333 229° Southwest 430 495 38,000  Level Gander Center
Thu 08:55:23 AM 54.2833 -58.3833 226° Southwest 430 495 38,000  Level Gander Center
Thu 08:56:23 AM 54.2000 -58.5333 227° Southwest 430 495 38,000  Level Gander Center
Thu 08:57:23 AM 54.1000 -58.6833 221° Southwest 430 495 38,000  Level Gander Center
Thu 08:58:23 AM 54.0167 -58.8000 219° Southwest 430 495 38,000  Level Gander Center
Thu 08:59:23 AM 53.9500 -58.9500 233° Southwest 430 495 38,000  Level Gander Center
Thu 09:00:23 AM 53.8667 -59.1000 227° Southwest 420 483 38,000  Level Gander Center
Thu 09:01:23 AM 53.7833 -59.2167 220° Southwest 420 483 38,000  Level Gander Center
Thu 09:02:23 AM 53.6833 -59.3667 222° Southwest 420 483 38,000  Level Gander Center
Thu 09:02:44 AM 53.6500 -59.4167 222° Southwest 420 483 38,000  Level Gander Center
Thu 09:03:23 AM 53.6000 -59.5000 225° Southwest 420 483 38,000  Level Gander Center
Thu 09:04:23 AM 53.5167 -59.6500 227° Southwest 430 495 38,000  Level Gander Center
Thu 09:05:23 AM 53.4333 -59.8000 227° Southwest 430 495 38,000  Level Gander Center
Thu 09:06:23 AM 53.3333 -59.9333 219° Southwest 430 495 38,000  Level Gander Center
Thu 09:07:23 AM 53.2500 -60.0833 227° Southwest 430 495 38,000  Level Gander Center
Thu 09:08:23 AM 53.1667 -60.2000 220° Southwest 430 495 38,000  Level Gander Center
Thu 09:09:23 AM 53.0833 -60.3333 224° Southwest 430 495 38,000  Level Gander Center
Thu 09:10:23 AM 53.0000 -60.4833 227° Southwest 430 495 38,000  Level Gander Center
Thu 09:11:23 AM 52.9167 -60.6167 224° Southwest 430 495 38,000  Level Gander Center
Thu 09:12:04 AM 52.8500 -60.7167 222° Southwest 430 495 38,000  Level Moncton Center
Thu 09:13:04 AM 52.7667 -60.8333 220° Southwest 430 495 38,000  Level Moncton Center
Thu 09:13:23 AM 52.7333 -60.9000 230° Southwest 420 483 38,000  Level Gander Center
Thu 09:14:23 AM 52.6500 -61.0000 216° Southwest 420 483 38,000  Level Gander Center
Thu 09:15:04 AM 52.6000 -61.1000 231° Southwest 420 483 38,000  Level Moncton Center
Thu 09:15:23 AM 52.5667 -61.1500 222° Southwest 420 483 38,000  Level Gander Center
Thu 09:16:23 AM 52.4833 -61.2833 224° Southwest 420 483 38,000  Level Gander Center
Thu 09:17:23 AM 52.4000 -61.4167 224° Southwest 430 495 38,000  Level Gander Center
Thu 09:18:04 AM 52.3333 -61.5000 217° Southwest 430 495 38,000  Level Moncton Center
Thu 09:19:04 AM 52.2333 -61.6333 219° Southwest 430 495 38,000  Level Moncton Center
Thu 09:20:04 AM 52.1500 -61.7500 221° Southwest 430 495 38,000  Level Moncton Center
Thu 09:21:04 AM 52.0667 -61.9000 228° Southwest 430 495 38,000  Level Moncton Center
Thu 09:21:23 AM 52.0333 -61.9333 212° Southwest 430 495 38,000  Level Gander Center
Thu 09:22:23 AM 51.9333 -62.0667 219° Southwest 420 483 38,000  Level Gander Center
Thu 09:23:23 AM 51.8500 -62.2000 225° Southwest 420 483 38,000  Level Gander Center
Thu 09:24:23 AM 51.7667 -62.3333 225° Southwest 420 483 38,000  Level Gander Center
Thu 09:25:23 AM 51.6833 -62.4500 221° Southwest 420 483 38,000  Level Gander Center
Thu 09:26:23 AM 51.6000 -62.5667 221° Southwest 420 483 38,000 -250 Level Gander Center
Thu 09:27:23 AM 51.5167 -62.7000 225° Southwest 410 472 37,500 -950 Descending Gander Center
Thu 09:28:23 AM 51.4167 -62.8167 216° Southwest 410 472 36,100 -1,200 Descending Gander Center
Thu 09:29:23 AM 51.3500 -62.9500 231° Southwest 410 472 35,100 -1,350 Descending Gander Center
Thu 09:30:23 AM 51.2667 -63.0500 217° Southwest 410 472 33,400 -1,550 Descending Gander Center
Thu 09:31:23 AM 51.1667 -63.1833 220° Southwest 420 483 32,000 -700 Descending Gander Center
Thu 09:32:23 AM 51.0667 -63.3000 216° Southwest 430 495 32,000  Level Gander Center
Thu 09:33:23 AM 50.9667 -63.4000 212° Southwest 440 506 32,000  Level Gander Center
Thu 09:34:23 AM 50.8667 -63.5333 220° Southwest 440 506 32,000  Level Gander Center
Thu 09:35:23 AM 50.7833 -63.6333 217° Southwest 440 506 32,000  Level Gander Center
Thu 09:36:04 AM 50.7167 -63.7167 218° Southwest 440 506 32,000  Level Moncton Center
Thu 09:37:04 AM 50.6167 -63.8500 220° Southwest 440 506 32,000  Level Moncton Center
Thu 09:37:23 AM 50.5833 -63.8667 198° South 440 506 32,000  Level Gander Center
Thu 09:38:23 AM 50.4833 -63.9833 217° Southwest 430 495 32,000  Level Gander Center
Thu 09:39:23 AM 50.3833 -64.0833 213° Southwest 430 495 32,000  Level Gander Center
Thu 09:40:23 AM 50.3000 -64.1833 217° Southwest 420 483 32,000  Level Gander Center
Thu 09:41:23 AM 50.2000 -64.3167 221° Southwest 420 483 32,000  Level Gander Center
Thu 09:42:23 AM 50.1000 -64.4167 213° Southwest 420 483 32,000  Level Gander Center
Thu 09:43:23 AM 50.0000 -64.5333 217° Southwest 430 495 32,000  Level Gander Center
Thu 09:44:23 AM 49.9000 -64.6333 213° Southwest 440 506 32,000  Level Gander Center
Thu 09:45:04 AM 49.8500 -64.7167 227° Southwest 430 495 32,000  Level Moncton Center
Thu 09:46:04 AM 49.7333 -64.8167 209° Southwest 430 495 32,000  Level Moncton Center
Thu 09:47:04 AM 49.6333 -64.9333 217° Southwest 440 506 32,000  Level Moncton Center
Thu 09:47:23 AM 49.6167 -64.9667 232° Southwest 440 506 32,000  Level Gander Center
Thu 09:48:04 AM 49.5333 -65.0500 213° Southwest 440 506 32,000  Level Moncton Center
Thu 09:49:04 AM 49.4333 -65.1500 213° Southwest 440 506 32,000  Level Moncton Center
Thu 09:50:04 AM 49.3333 -65.2667 217° Southwest 440 506 32,000  Level Moncton Center
Thu 09:51:04 AM 49.2333 -65.3667 213° Southwest 440 506 32,000  Level Moncton Center
Thu 09:52:04 AM 49.1500 -65.4667 218° Southwest 440 506 32,000  Level Moncton Center
Thu 09:53:04 AM 49.0500 -65.5667 213° Southwest 430 495 32,000  Level Moncton Center
Thu 09:54:04 AM 48.9500 -65.6667 213° Southwest 430 495 32,000  Level Moncton Center
Thu 09:55:04 AM 48.8500 -65.7667 213° Southwest 420 483 32,000  Level Moncton Center
Thu 09:56:04 AM 48.7500 -65.9000 221° Southwest 420 483 32,000  Level Moncton Center
Thu 09:57:04 AM 48.6667 -66.0000 218° Southwest 420 483 32,000  Level Moncton Center
Thu 09:58:04 AM 48.5500 -66.1000 210° Southwest 430 495 32,000  Level Moncton Center
Thu 09:59:04 AM 48.4500 -66.1833 209° Southwest 430 495 32,000  Level Moncton Center
Thu 10:00:04 AM 48.3500 -66.2833 214° Southwest 440 506 32,000  Level Moncton Center
Thu 10:01:04 AM 48.2500 -66.4167 222° Southwest 440 506 32,000  Level Moncton Center
Thu 10:02:04 AM 48.1500 -66.5000 209° Southwest 450 518 32,000  Level Moncton Center
Thu 10:03:04 AM 48.0500 -66.6000 214° Southwest 440 506 32,000  Level Moncton Center
Thu 10:04:04 AM 47.9500 -66.7167 218° Southwest 450 518 32,000  Level Moncton Center
Thu 10:05:04 AM 47.8500 -66.8167 214° Southwest 430 495 32,000  Level Moncton Center
Thu 10:06:04 AM 47.7333 -66.9167 210° Southwest 440 506 32,000  Level Moncton Center
Thu 10:07:04 AM 47.6500 -67.0333 223° Southwest 440 506 32,000  Level Moncton Center
Thu 10:08:04 AM 47.5333 -67.1167 206° Southwest 440 506 32,000  Level Moncton Center
Thu 10:09:04 AM 47.4500 -67.2167 219° Southwest 440 506 32,000  Level Moncton Center
Thu 10:10:04 AM 47.3500 -67.3333 218° Southwest 430 495 32,000  Level Moncton Center
Thu 10:15:38 AM 46.9200 -68.0420 218° Southwest 411 473 32,000  Level FlightAware ADS-B
Thu 10:19:08 AM 46.6530 -68.4850 229° Southwest 425 489 32,000  Level FlightAware ADS-B
Thu 10:19:43 AM 46.6040 -68.5640 228° Southwest 425 489 32,000  Level FlightAware ADS-B
Thu 10:20:33 AM 46.5400 -68.6690 228° Southwest 427 491 32,000  Level FlightAware ADS-B
Thu 10:21:13 AM 46.4870 -68.7560 229° Southwest 427 491 32,000  Level FlightAware ADS-B
Thu 10:21:58 AM 46.4300 -68.8500 229° Southwest 428 493 32,000  Level FlightAware ADS-B
Thu 10:22:38 AM 46.3770 -68.9350 228° Southwest 428 493 32,000  Level FlightAware ADS-B
Thu 10:23:18 AM 46.3240 -69.0210 228° Southwest 429 494 32,000  Level FlightAware ADS-B
Thu 10:24:03 AM 46.2650 -69.1160 228° Southwest 429 494 32,000  Level FlightAware ADS-B
Thu 10:24:43 AM 46.2120 -69.2020 228° Southwest 429 494 32,000  Level FlightAware ADS-B
Thu 10:25:23 AM 46.1600 -69.2860 228° Southwest 428 493 32,000  Level FlightAware ADS-B
Thu 10:26:13 AM 46.0930 -69.3920 228° Southwest 429 494 32,000  Level FlightAware ADS-B
Thu 10:26:53 AM 46.0410 -69.4770 229° Southwest 429 494 32,000  Level FlightAware ADS-B
Thu 10:27:33 AM 45.9880 -69.5600 227° Southwest 428 493 32,000  Level FlightAware ADS-B
Thu 10:28:18 AM 45.9290 -69.6540 228° Southwest 428 493 32,000  Level FlightAware ADS-B
Thu 10:28:58 AM 45.8760 -69.7380 228° Southwest 427 491 32,000  Level FlightAware ADS-B
Thu 10:29:43 AM 45.8160 -69.8330 228° Southwest 428 493 32,000  Level FlightAware ADS-B
Thu 10:30:23 AM 45.7630 -69.9160 228° Southwest 428 493 32,000  Level FlightAware ADS-B
Thu 10:31:03 AM 45.7100 -69.9990 228° Southwest 428 493 32,000  Level FlightAware ADS-B
Thu 10:31:48 AM 45.6500 -70.0930 228° Southwest 428 493 32,000  Level FlightAware ADS-B
Thu 10:32:28 AM 45.5970 -70.1760 228° Southwest 428 493 32,000  Level FlightAware ADS-B
Thu 10:33:13 AM 45.5370 -70.2690 227° Southwest 428 493 32,000  Level FlightAware ADS-B
Thu 10:33:53 AM 45.4840 -70.3510 227° Southwest 428 493 32,000  Level FlightAware ADS-B
Thu 10:34:33 AM 45.4310 -70.4340 228° Southwest 429 494 32,000  Level FlightAware ADS-B
Thu 10:35:18 AM 45.3700 -70.5270 227° Southwest 428 493 32,000  Level FlightAware ADS-B
Thu 10:35:58 AM 45.3160 -70.6090 227° Southwest 430 495 32,000  Level FlightAware ADS-B
Thu 10:36:38 AM 45.2620 -70.6920 227° Southwest 430 495 32,000  Level FlightAware ADS-B
Thu 10:37:23 AM 45.2020 -70.7830 227° Southwest 431 496 32,000  Level FlightAware ADS-B
Thu 10:38:03 AM 45.1480 -70.8660 227° Southwest 432 497 32,000  Level FlightAware ADS-B
Thu 10:38:48 AM 45.0870 -70.9580 227° Southwest 432 497 32,000  Level FlightAware ADS-B
Thu 10:39:28 AM 45.0320 -71.0410 227° Southwest 433 498 32,000  Level FlightAware ADS-B
Thu 10:40:13 AM 44.9700 -71.1330 226° Southwest 433 498 32,000  Level FlightAware ADS-B
Thu 10:40:53 AM 44.9120 -71.2210 227° Southwest 432 497 32,000  Level FlightAware ADS-B
Thu 10:41:33 AM 44.8570 -71.3020 226° Southwest 434 499 32,000  Level FlightAware ADS-B
Thu 10:42:18 AM 44.7970 -71.3920 227° Southwest 435 501 32,000  Level FlightAware ADS-B
Thu 10:42:58 AM 44.7410 -71.4740 226° Southwest 435 501 32,000  Level FlightAware ADS-B
Thu 10:43:43 AM 44.6770 -71.5690 227° Southwest 435 501 32,000  Level FlightAware ADS-B
Thu 10:44:23 AM 44.6210 -71.6510 226° Southwest 435 501 32,000  Level FlightAware ADS-B
Thu 10:45:08 AM 44.5610 -71.7380 226° Southwest 434 499 32,000  Level FlightAware ADS-B
Thu 10:45:48 AM 44.5060 -71.8180 226° Southwest 436 502 32,000  Level FlightAware ADS-B
Thu 10:46:28 AM 44.4500 -71.8990 226° Southwest 436 502 32,000  Level FlightAware ADS-B
Thu 10:47:08 AM 44.3940 -71.9800 226° Southwest 434 499 32,000  Level FlightAware ADS-B
Thu 10:47:53 AM 44.3300 -72.0730 226° Southwest 434 499 32,000  Level FlightAware ADS-B
Thu 10:48:33 AM 44.2740 -72.1530 226° Southwest 434 499 32,000  Level FlightAware ADS-B
Thu 10:49:18 AM 44.2180 -72.2330 226° Southwest 433 498 32,000  Level FlightAware ADS-B
Thu 10:49:58 AM 44.1550 -72.3230 226° Southwest 433 498 32,000  Level FlightAware ADS-B
Thu 10:50:43 AM 44.0910 -72.4120 225° Southwest 434 499 32,000  Level FlightAware ADS-B
Thu 10:51:23 AM 44.0330 -72.4940 225° Southwest 434 499 32,000  Level FlightAware ADS-B
Thu 10:52:08 AM 43.9720 -72.5810 226° Southwest 435 501 32,000  Level FlightAware ADS-B
Thu 10:52:48 AM 43.9150 -72.6600 225° Southwest 437 503 32,000  Level FlightAware ADS-B
Thu 10:53:28 AM 43.8580 -72.7390 225° Southwest 439 505 32,000  Level FlightAware ADS-B
Thu 10:54:13 AM 43.7930 -72.8300 225° Southwest 437 503 32,000 -565 Level FlightAware ADS-B
Thu 10:54:53 AM 43.7380 -72.9060 225° Southwest 439 505 31,200 -1,200 Descending FlightAware ADS-B
Thu 10:55:33 AM 43.6790 -72.9870 225° Southwest 439 505 30,400 -900 Descending FlightAware ADS-B
Thu 10:56:13 AM 43.6220 -73.0650 225° Southwest 429 494 30,000 -675 Descending FlightAware ADS-B
Thu 10:56:53 AM 43.5710 -73.1350 225° Southwest 425 489 29,500 -776 Descending FlightAware ADS-B
Thu 10:57:38 AM 43.5050 -73.2250 225° Southwest 423 487 28,900 -867 Descending FlightAware ADS-B
Thu 10:58:23 AM 43.4390 -73.3150 225° Southwest 421 484 28,200 -821 Descending FlightAware ADS-B
Thu 10:59:13 AM 43.3910 -73.3800 225° Southwest 415 478 27,600 -840 Descending FlightAware ADS-B
Thu 11:00:03 AM 43.3270 -73.4660 224° Southwest 407 468 26,800 -975 Descending FlightAware ADS-B
Thu 11:00:33 AM 43.2900 -73.5160 225° Southwest 404 465 26,300 -1,906 Descending FlightAware ADS-B
Thu 11:01:28 AM 43.1910 -73.6390 222° Southwest 385 443 24,100 -1,453 Descending FlightAware ADS-B
Thu 11:02:08 AM 43.1270 -73.6720 201° Southwest 389 448 24,000 -75 Descending FlightAware ADS-B
Thu 11:02:48 AM 43.0540 -73.7020 197° South 395 455 24,000 -565 Level FlightAware ADS-B
Thu 11:03:33 AM 42.9750 -73.7350 197° South 391 450 23,200 -2,400 Descending FlightAware ADS-B
Thu 11:04:13 AM 42.9040 -73.7640 197° South 384 442 20,600 -3,900 Descending FlightAware ADS-B
Thu 11:04:53 AM 42.8380 -73.7910 197° South 372 428 18,000 -3,375 Descending FlightAware ADS-B
Thu 11:05:33 AM 42.7720 -73.8180 197° South 366 421 16,100 -1,624 Descending FlightAware ADS-B
Thu 11:06:18 AM 42.7030 -73.8470 197° South 345 397 15,700 -267 Descending FlightAware ADS-B
Thu 11:07:03 AM 42.6330 -73.8780 198° South 351 404 15,700  Level FlightAware ADS-B
Thu 11:07:48 AM 42.5640 -73.9070 197° South 351 404 15,700  Level FlightAware ADS-B
Thu 11:08:48 AM 42.4740 -73.9460 198° South 352 405 15,700  Level FlightAware ADS-B
Thu 11:09:28 AM 42.4210 -73.9680 197° South 352 405 15,700  Level FlightAware ADS-B
Thu 11:10:18 AM 42.3550 -73.9950 197° South 352 405 15,700  Level FlightAware ADS-B
Thu 11:10:58 AM 42.3020 -74.0170 197° South 352 405 15,700  Level FlightAware ADS-B
Thu 11:11:38 AM 42.2490 -74.0390 197° South 352 405 15,700  Level FlightAware ADS-B
Thu 11:12:18 AM 42.1960 -74.0610 197° South 352 405 15,700 -526 Level FlightAware ADS-B
Thu 11:17:43 AM 41.6590 -74.2910 198° South 284 327 12,500 -714 Descending FlightAware ADS-B
Thu 11:18:28 AM 41.6020 -74.3150 197° South 283 326 11,300 -900 Descending FlightAware ADS-B
Thu 11:19:03 AM 41.5630 -74.3300 196° South 283 326 11,300  Level FlightAware ADS-B
Thu 11:19:43 AM 41.5210 -74.3480 198° South 283 326 11,300 -2,000 Level FlightAware ADS-B
Thu 11:20:18 AM 41.4700 -74.3690 197° South 269 310 8,800 -2,500 Descending FlightAware ADS-B
Thu 11:20:43 AM 41.4410 -74.3800 196° South 269 310 8,800  Level FlightAware ADS-B
Thu 11:21:13 AM 41.4110 -74.3930 198° South 269 310 8,800  Level FlightAware ADS-B
Thu 11:21:43 AM 41.3810 -74.4050 197° South 269 310 8,800  Level FlightAware ADS-B
Thu 11:21:53 AM 41.3700 -74.4090 195° South 269 310 8,800 -768 Level FlightAware ADS-B
Thu 11:25:53 AM 41.1020 -74.4660 189° South 199 229 5,600 -738 Descending FlightAware ADS-B
Thu 11:26:13 AM 41.0870 -74.4810 217° Southwest 202 232 5,600  Level FlightAware ADS-B
Thu 11:26:51 AM 41.0552 -74.5117 216° Southwest 202 232 5,600  Level FlightAware ADS-B
Thu 11:27:09 AM 41.0417 -74.5249 216° Southwest 201 231 5,600  Level FlightAware ADS-B
Thu 11:27:58 AM 41.0020 -74.5130 167° South 237 273 5,600  Level FlightAware ADS-B
Thu 11:28:13 AM 40.9990 -74.4920 101° East 250 288 5,600 -698 Level FlightAware ADS-B
Thu 11:28:41 AM 41.0080 -74.4457 76° East 258 297 5,100 -1,067 Descending FlightAware ADS-B
Thu 11:28:58 AM 41.0139 -74.4196 73° East 254 292 4,800 -857 Descending FlightAware ADS-B
Thu 11:29:09 AM 41.0147 -74.4039 86° East 239 275 4,700 -316 Descending FlightAware ADS-B
Thu 11:29:17 AM 41.0128 -74.3932 103° East 230 265 4,700 -200 Level FlightAware ADS-B
Thu 11:29:39 AM 41.0051 -74.3647 110° East 221 254 4,600 -94 Descending FlightAware ADS-B
Thu 11:30:21 AM 40.9893 -74.3109 111° Southeast 221 254 4,600 -305 Level FlightAware ADS-B
Thu 11:30:38 AM 40.9831 -74.2897 111° Southeast 217 250 4,300 -750 Descending FlightAware ADS-B
Thu 11:31:33 AM 40.9632 -74.2247 112° Southeast 203 234 3,700 -656 Descending FlightAware ADS-B
Thu 11:31:42 AM 40.9601 -74.2149 113° Southeast 203 234 3,600 -300 Descending FlightAware ADS-B
Thu 11:31:53 AM 40.9548 -74.2034 121° Southeast 198 228 3,600  Level FlightAware ADS-B
Thu 11:32:08 AM 40.9460 -74.1900 131° Southeast 201 231 3,600  Level FlightAware ADS-B
Thu 11:32:31 AM 40.9308 -74.1696 135° Southeast 200 230 3,600  Level FlightAware ADS-B
Thu 11:32:53 AM 40.9163 -74.1502 135° Southeast 198 228 3,600  Level FlightAware ADS-B
Thu 11:33:12 AM 40.9045 -74.1342 134° Southeast 197 227 3,600 -324 Level FlightAware ADS-B
Thu 11:33:30 AM 40.8929 -74.1199 137° Southeast 193 222 3,400 -588 Descending FlightAware ADS-B
Thu 11:34:03 AM 40.8720 -74.1010 146° Southeast 172 198 3,100 -857 Descending FlightAware ADS-B
Thu 11:34:33 AM 40.8510 -74.0840 149° Southeast 169 194 2,500 -1,143 Descending FlightAware ADS-B
Thu 11:34:45 AM 40.8417 -74.0774 152° Southeast 166 191 2,300 -1,000 Descending FlightAware ADS-B
Thu 11:34:51 AM 40.8372 -74.0744 153° Southeast 166 191 2,200 -857 Descending FlightAware ADS-B
Thu 11:34:59 AM 40.8317 -74.0717 160° South 169 194 2,100 -400 Descending FlightAware ADS-B
Thu 11:35:06 AM 40.8269 -74.0700 165° South 173 199 2,100  Level FlightAware ADS-B
Thu 11:35:10 AM 40.8233 -74.0694 173° South 175 201 2,100  Level FlightAware ADS-B
Thu 11:35:13 AM 40.8206 -74.0698 186° South 177 204 2,100  Level FlightAware ADS-B
Thu 11:35:17 AM 40.8180 -74.0707 195° South 178 205 2,100  Level FlightAware ADS-B
Thu 11:35:28 AM 40.8092 -74.0756 203° Southwest 182 209 2,100  Level FlightAware ADS-B
Thu 11:35:35 AM 40.8037 -74.0793 207° Southwest 183 211 2,100  Level FlightAware ADS-B
Thu 11:35:46 AM 40.7959 -74.0844 206° Southwest 179 206 2,100 -409 Level FlightAware ADS-B
Thu 11:36:19 AM 40.7718 -74.0997 206° Southwest 170 196 1,800 -600 Descending FlightAware ADS-B
Thu 11:36:26 AM 40.7672 -74.1026 206° Southwest 168 193 1,700 -720 Descending FlightAware ADS-B
Thu 11:36:44 AM 40.7550 -74.1103 206° Southwest 166 191 1,500 -909 Descending FlightAware ADS-B
Thu 11:36:59 AM 40.7443 -74.1172 206° Southwest 165 190 1,200 -973 Descending FlightAware ADS-B
Thu 11:37:21 AM 40.7299 -74.1264 206° Southwest 162 186 900 -800 Descending FlightAware ADS-B
Thu 11:37:29 AM 40.7248 -74.1298 207° Southwest 147 169 800 -720 Descending FlightAware ADS-B
Thu 11:37:46 AM 40.7146 -74.1362 205° Southwest 139 160 600 -435 Descending FlightAware ADS-B
Thu 11:38:38 AM 40.6890 -74.1520 205° Southwest 133 153 300 -346 Descending FlightAware ADS-B

Login

Don't have an account? Register now (free) for customized features, flight alerts, and more!